createdAt,value
2023-03-28T00:04:32.877Z,8.10
2023-03-28T00:07:04.390Z,8.30
2023-03-28T00:17:45.296Z,8.40
2023-03-28T00:31:15.266Z,8.30
2023-03-28T00:36:56.141Z,8.30
2023-03-28T00:42:06.433Z,8.20
2023-03-28T00:50:47.839Z,8.20
2023-03-28T00:53:20.992Z,8.20
2023-03-28T00:56:00.696Z,8.10
2023-03-28T00:58:40.045Z,8.10
2023-03-28T01:04:03.011Z,8.00
2023-03-28T01:06:43.863Z,7.90
2023-03-28T01:09:17.067Z,7.80
2023-03-28T01:11:52.314Z,7.80
2023-03-28T01:14:21.790Z,7.80
2023-03-28T01:16:49.760Z,7.80
2023-03-28T01:22:59.601Z,7.70
2023-03-28T01:25:46.123Z,7.70
2023-03-28T01:28:26.707Z,7.60
2023-03-28T01:31:18.829Z,7.50
2023-03-28T01:34:07.189Z,7.50
2023-03-28T01:37:08.035Z,7.50
2023-03-28T01:40:02.726Z,7.50
2023-03-28T01:42:30.904Z,7.50
2023-03-28T01:45:20.460Z,7.40
2023-03-28T01:48:10.705Z,7.40
2023-03-28T01:50:48.472Z,7.20
2023-03-28T01:53:28.616Z,7.10
2023-03-28T01:56:23.774Z,7.10
2023-03-28T01:59:00.698Z,7.00
2023-03-28T02:01:46.183Z,6.90
2023-03-28T02:06:59.435Z,6.90
2023-03-28T02:09:28.256Z,6.90
2023-03-28T02:15:20.398Z,7.00
2023-03-28T02:17:51.363Z,7.10
2023-03-28T02:25:56.039Z,7.00
2023-03-28T02:28:26.360Z,7.00
2023-03-28T02:42:34.761Z,6.90
2023-03-28T02:45:32.398Z,6.90
2023-03-28T02:51:08.924Z,6.90
2023-03-28T02:53:58.242Z,7.00
2023-03-28T02:59:33.524Z,6.90
2023-03-28T03:02:02.486Z,6.90
2023-03-28T03:04:30.779Z,6.90
2023-03-28T03:07:03.547Z,6.90
2023-03-28T03:09:32.332Z,6.80
2023-03-28T03:12:00.576Z,6.80
2023-03-28T03:14:30.479Z,6.80
2023-03-28T03:16:59.179Z,6.70
2023-03-28T03:19:28.079Z,6.70
2023-03-28T03:21:57.775Z,6.70
2023-03-28T03:24:25.765Z,6.60
2023-03-28T03:26:53.923Z,6.60
2023-03-28T03:29:26.306Z,6.60
2023-03-28T03:32:07.182Z,6.60
2023-03-28T03:34:34.943Z,6.50
2023-03-28T03:39:46.237Z,6.60
2023-03-28T03:42:14.962Z,6.60
2023-03-28T03:44:45.076Z,6.60
2023-03-28T03:47:13.337Z,6.50
2023-03-28T03:49:40.817Z,6.50
2023-03-28T03:52:19.798Z,6.50
2023-03-28T03:54:49.571Z,6.50
2023-03-28T03:57:27.428Z,6.50
2023-03-28T04:00:01.372Z,6.50
2023-03-28T04:05:13.272Z,6.50
2023-03-28T04:10:30.035Z,6.40
2023-03-28T04:13:08.505Z,6.30
2023-03-28T04:15:36.878Z,6.30
2023-03-28T04:18:09.537Z,6.10
2023-03-28T04:20:42.380Z,6.20
2023-03-28T04:23:10.398Z,6.20
2023-03-28T04:25:38.137Z,6.10
2023-03-28T04:28:11.349Z,6.10
2023-03-28T04:30:40.395Z,6.10
2023-03-28T04:33:09.422Z,6.00
2023-03-28T04:35:37.515Z,6.00
2023-03-28T04:41:00.389Z,6.00
2023-03-28T04:54:25.572Z,6.00
2023-03-28T04:59:43.887Z,6.00
2023-03-28T05:10:21.556Z,6.10
2023-03-28T05:18:23.780Z,6.20
2023-03-28T05:20:53.586Z,6.10
2023-03-28T05:31:33.164Z,6.30
2023-03-28T05:50:26.377Z,6.80
2023-03-28T06:15:28.842Z,7.50
2023-03-28T06:20:43.031Z,7.80
2023-03-28T06:23:12.410Z,7.90
2023-03-28T06:25:40.039Z,8.20
2023-03-28T06:28:10.527Z,8.30
2023-03-28T06:30:42.091Z,8.40
2023-03-28T06:33:11.733Z,8.40
2023-03-28T06:35:43.962Z,8.40
2023-03-28T06:38:18.248Z,8.40
2023-03-28T06:40:48.997Z,8.40
2023-03-28T06:43:17.530Z,8.50
2023-03-28T06:45:47.368Z,8.50
2023-03-28T06:48:17.230Z,8.70
2023-03-28T06:50:53.042Z,8.80
2023-03-28T06:53:20.876Z,8.90
2023-03-28T06:55:50.743Z,8.80
2023-03-28T06:58:21.125Z,8.90
2023-03-28T07:00:48.334Z,8.90
2023-03-28T07:03:15.752Z,9.00
2023-03-28T07:05:43.333Z,9.20
2023-03-28T07:08:11.512Z,9.30
2023-03-28T07:10:40.099Z,9.30
2023-03-28T07:13:08.420Z,9.30
2023-03-28T07:15:38.776Z,9.30
2023-03-28T07:18:10.691Z,9.30
2023-03-28T07:21:03.858Z,9.50
2023-03-28T07:26:34.922Z,10.80
2023-03-28T07:29:10.292Z,11.20
2023-03-28T07:31:37.997Z,12.30
2023-03-28T07:34:06.668Z,12.30
2023-03-28T07:36:34.132Z,12.70
2023-03-28T07:39:09.055Z,12.80
2023-03-28T07:41:36.991Z,12.90
2023-03-28T07:44:04.685Z,13.10
2023-03-28T07:46:32.636Z,13.80
2023-03-28T07:49:02.127Z,14.50
2023-03-28T07:51:32.553Z,16.00
2023-03-28T07:56:26.968Z,15.90
2023-03-28T07:58:55.211Z,15.70
2023-03-28T08:01:23.170Z,15.50
2023-03-28T08:03:50.651Z,14.90
2023-03-28T08:06:31.599Z,14.80
2023-03-28T08:09:00.047Z,15.70
2023-03-28T08:11:28.371Z,16.50
2023-03-28T08:13:56.460Z,17.30
2023-03-28T08:16:26.322Z,17.00
2023-03-28T08:19:03.942Z,17.50
2023-03-28T08:21:37.911Z,17.60
2023-03-28T08:30:11.887Z,18.90
2023-03-28T08:32:39.407Z,18.50
2023-03-28T08:35:07.910Z,18.80
2023-03-28T08:37:36.124Z,20.30
2023-03-28T08:40:09.042Z,22.00
2023-03-28T08:42:48.379Z,23.60
2023-03-28T08:45:41.950Z,23.60
2023-03-28T08:48:15.467Z,23.40
2023-03-28T08:50:44.998Z,23.00
2023-03-28T08:53:22.442Z,24.00
2023-03-28T08:55:51.134Z,23.20
2023-03-28T08:58:21.675Z,22.70
2023-03-28T09:00:52.479Z,22.40
2023-03-28T09:03:23.281Z,22.40
2023-03-28T09:06:09.922Z,22.80
2023-03-28T09:08:44.307Z,23.10
2023-03-28T09:11:31.530Z,23.50
2023-03-28T09:14:09.161Z,24.10
2023-03-28T09:16:54.440Z,22.70
2023-03-28T09:19:52.876Z,20.90
2023-03-28T09:22:44.193Z,19.10
2023-03-28T09:25:55.626Z,17.30
2023-03-28T09:29:03.109Z,16.10
2023-03-28T09:31:37.587Z,15.80
2023-03-28T09:34:08.376Z,16.00
2023-03-28T09:36:48.411Z,16.00
2023-03-28T09:39:42.999Z,15.60
2023-03-28T09:42:16.394Z,15.50
2023-03-28T09:45:10.678Z,15.80
2023-03-28T09:47:38.138Z,15.90
2023-03-28T09:50:12.959Z,15.80
2023-03-28T09:52:45.464Z,15.70
2023-03-28T09:55:21.236Z,15.40
2023-03-28T09:58:01.961Z,14.80
2023-03-28T10:00:36.104Z,14.50
2023-03-28T10:03:04.415Z,14.50
2023-03-28T10:05:37.340Z,14.30
2023-03-28T10:08:20.970Z,14.00
2023-03-28T10:11:13.569Z,13.90
2023-03-28T10:13:42.601Z,14.00
2023-03-28T10:16:13.381Z,14.70
2023-03-28T10:18:41.043Z,16.00
2023-03-28T10:21:21.330Z,19.00
2023-03-28T10:24:03.637Z,22.30
2023-03-28T10:27:53.897Z,23.70
2023-03-28T10:30:26.359Z,23.50
2023-03-28T10:33:21.187Z,21.80
2023-03-28T10:36:10.143Z,20.10
2023-03-28T10:42:45.705Z,21.90
2023-03-28T10:45:41.093Z,24.80
2023-03-28T10:48:19.208Z,25.70
2023-03-28T11:01:08.268Z,24.40
2023-03-28T11:03:58.220Z,24.40
2023-03-28T11:06:43.708Z,22.80
2023-03-28T11:09:33.359Z,20.80
2023-03-28T11:12:07.639Z,19.20
2023-03-28T11:15:26.451Z,19.10
2023-03-28T11:18:14.757Z,21.20
2023-03-28T11:20:46.048Z,22.30
2023-03-28T11:23:29.067Z,22.40
2023-03-28T11:26:04.887Z,21.10
2023-03-28T11:28:50.672Z,19.90
2023-03-28T11:31:38.609Z,19.50
2023-03-28T11:34:22.393Z,19.30
2023-03-28T11:36:54.650Z,18.80
2023-03-28T11:39:37.822Z,18.30
2023-03-28T11:42:18.709Z,18.30
2023-03-28T11:45:59.061Z,20.10
2023-03-28T11:48:30.896Z,23.10
2023-03-28T11:51:26.048Z,25.80
2023-03-28T11:54:06.052Z,25.00
2023-03-28T12:11:03.779Z,24.70
2023-03-28T12:14:08.985Z,23.20
2023-03-28T12:29:44.461Z,21.80
2023-03-28T12:32:33.537Z,23.60
2023-03-28T12:35:07.813Z,24.90
2023-03-28T12:38:01.105Z,25.60
2023-03-28T12:40:53.605Z,27.00
2023-03-28T12:43:29.829Z,28.50
2023-03-28T12:50:06.717Z,29.00
2023-03-28T12:52:45.874Z,26.70
2023-03-28T12:55:25.534Z,25.30
2023-03-28T12:58:11.866Z,24.10
2023-03-28T13:00:50.052Z,22.20
2023-03-28T13:03:34.387Z,20.60
2023-03-28T13:06:34.612Z,19.10
2023-03-28T13:09:17.850Z,17.90
2023-03-28T13:12:00.269Z,17.10
2023-03-28T13:14:35.902Z,16.90
2023-03-28T13:17:27.616Z,16.90
2023-03-28T13:19:59.990Z,17.00
2023-03-28T13:25:22.892Z,16.70
2023-03-28T13:27:51.781Z,16.40
2023-03-28T13:30:27.829Z,16.00
2023-03-28T13:33:00.240Z,17.00
2023-03-28T13:35:59.336Z,19.00
2023-03-28T13:38:36.569Z,21.10
2023-03-28T13:41:11.575Z,22.80
2023-03-28T13:43:58.454Z,23.10
2023-03-28T13:46:41.819Z,22.00
2023-03-28T13:49:31.870Z,20.20
2023-03-28T13:52:07.868Z,19.00
2023-03-28T13:54:47.774Z,18.10
2023-03-28T13:57:18.467Z,17.30
2023-03-28T13:59:54.986Z,16.60
2023-03-28T14:02:50.412Z,16.00
2023-03-28T14:05:21.946Z,15.50
2023-03-28T14:07:50.617Z,14.90
2023-03-28T14:10:26.176Z,14.40
2023-03-28T14:12:55.282Z,14.00
2023-03-28T14:15:29.334Z,14.60
2023-03-28T14:18:02.221Z,16.30
2023-03-28T14:23:37.477Z,18.80
2023-03-28T14:26:20.448Z,19.10
2023-03-28T14:28:52.190Z,19.10
2023-03-28T14:31:36.138Z,18.70
2023-03-28T14:34:20.509Z,18.20
2023-03-28T14:37:33.651Z,17.60
2023-03-28T14:40:01.948Z,16.80
2023-03-28T14:43:17.695Z,16.10
2023-03-28T14:45:56.652Z,15.60
2023-03-28T14:48:28.617Z,15.00
2023-03-28T14:50:57.222Z,14.60
2023-03-28T14:53:26.388Z,14.50
2023-03-28T14:56:06.646Z,14.30
2023-03-28T14:58:34.839Z,14.20
2023-03-28T15:01:05.434Z,14.30
2023-03-28T15:03:40.030Z,14.40
2023-03-28T15:06:11.595Z,14.40
2023-03-28T15:08:39.835Z,14.40
2023-03-28T15:11:23.107Z,14.50
2023-03-28T15:13:57.116Z,14.60
2023-03-28T15:16:28.137Z,14.80
2023-03-28T15:19:24.395Z,14.70
2023-03-28T15:21:56.288Z,14.80
2023-03-28T15:24:24.072Z,14.80
2023-03-28T15:26:54.132Z,14.70
2023-03-28T15:29:22.675Z,14.50
2023-03-28T15:31:50.275Z,14.30
2023-03-28T15:34:29.958Z,14.10
2023-03-28T15:37:05.646Z,13.90
2023-03-28T15:39:34.713Z,13.80
2023-03-28T15:59:54.954Z,13.00
2023-03-28T16:05:42.462Z,12.70
2023-03-28T16:08:46.312Z,12.50
